X  Close Metar Aviation Weather Data     KILM Wilmington International Airport
Temperature
73°F Temperature
36°F Dewpoint
25% Humidity



Wind
22 MPH
35 KM/H
10 M/S
19 KTS



290°
WNW
Current Conditions

Clear Clear
Pressure 1016.93 (hPa) - 30.03 (inHg)
Visibility 10 (mile) - 16.1 (km)
Airport
Airport-code KILM

Location: Wilmington International Airport
Distance: 10 (mi)

Metar:
KILM 131853Z 29019G28KT 10SM CLR 23/02 A3003 RMK AO2 PK WND 28031/1830 SLP170 T02330017

Time: 2024-04-13 14:53 EDT